Time;durP1;ratioP1;P1;durP2;ratioP2;P2;SDS_P1;SDS_P2;PMS_P1;PMS_P2;Temp;Humidity;BMP_temperature;BMP_pressure;BME280_temperature;BME280_humidity;BME280_pressure;Samples;Min_cycle;Max_cycle;Signal;HPM_P1;HPM_P2
2023/03/30 00:01:13;;;;;;;;;;;;;;;12.65;85.26;100649.31;5057481;28;19916;-45
2023/03/30 00:03:39;;;;;;;;;;;;;;;12.66;85.17;100645.91;5050207;28;20279;-44
2023/03/30 00:06:05;;;;;;;;;;;;;;;12.67;84.78;100637.31;5050511;28;20359;-46
2023/03/30 00:08:32;;;;;;;;;;;;;;;12.77;82.56;100628.00;5053876;28;20003;-45
2023/03/30 00:11:05;;;;;;;;;;;;;;;12.77;82.92;100622.84;5055420;28;20434;-45
2023/03/30 00:13:31;;;;;;;;;;;;;;;12.79;83.19;100613.41;5051896;28;19991;-44
2023/03/30 00:15:56;;;;;;;;;;;;;;;12.84;82.71;100604.91;5054384;28;20394;-44
2023/03/30 00:18:21;;;;;;;;;;;;;;;12.86;81.94;100604.91;5054633;28;20356;-44
2023/03/30 00:20:47;;;;;;;;;;;;;;;12.87;82.77;100604.09;5052405;28;19939;-44
2023/03/30 00:23:13;;;;;;;;;;;;;;;12.82;82.63;100596.28;5051839;28;19946;-43
2023/03/30 00:25:38;;;;;;;;;;;;;;;12.80;82.16;100602.25;5051469;28;19955;-45
2023/03/30 00:28:03;;;;;;;;;;;;;;;12.83;82.33;100613.50;5046819;28;20128;-45
2023/03/30 00:30:28;;;;;;;;;;;;;;;12.81;81.96;100607.44;5048351;28;19912;-43
2023/03/30 00:32:54;;;;;;;;;;;;;;;12.84;82.08;100601.44;5051139;28;19999;-44
2023/03/30 00:35:19;;;;;;;;;;;;;;;12.92;82.05;100588.66;5050924;28;19931;-45
2023/03/30 00:37:48;;;;;;;;;;;;;;;12.90;80.05;100591.22;5052433;28;19925;-45
2023/03/30 00:40:18;;;;;;;;;;;;;;;12.93;82.13;100595.56;5053352;28;19927;-45
2023/03/30 00:42:44;;;;;;;;;;;;;;;12.92;81.60;100584.34;5052167;28;19928;-45
2023/03/30 00:45:26;;;;;;;;;;;;;;;12.92;82.02;100576.63;5049637;28;19923;-44
2023/03/30 00:48:07;;;;;;;;;;;;;;;12.89;80.35;100559.38;5049783;28;19956;-45
2023/03/30 00:50:37;;;;;;;;;;;;;;;12.89;80.75;100555.94;5050929;28;19932;-46
2023/03/30 00:53:05;;;;;;;;;;;;;;;12.86;81.18;100555.88;5049849;28;19912;-44
2023/03/30 00:55:32;;;;;;;;;;;;;;;12.84;80.46;100557.59;5052730;28;19943;-45
2023/03/30 00:57:58;;;;;;;;;;;;;;;12.89;81.02;100563.69;5049822;28;19920;-46
2023/03/30 01:00:23;;;;;;;;;;;;;;;12.81;80.06;100561.00;5050366;28;19940;-45
2023/03/30 01:02:54;;;;;;;;;;;;;;;12.82;79.85;100549.84;5047848;28;19920;-45
2023/03/30 01:05:20;;;;;;;;;;;;;;;12.86;80.20;100546.47;5049866;28;20458;-45
2023/03/30 01:07:48;;;;;;;;;;;;;;;12.88;79.30;100543.91;5051658;28;19943;-45
2023/03/30 01:10:14;;;;;;;;;;;;;;;12.85;78.90;100547.28;5056727;28;20279;-44
2023/03/30 01:12:39;;;;;;;;;;;;;;;12.87;79.29;100548.19;5050921;28;20383;-45
2023/03/30 01:15:08;;;;;;;;;;;;;;;12.88;79.61;100551.63;5051450;28;19919;-44
2023/03/30 01:17:48;;;;;;;;;;;;;;;12.92;78.81;100548.22;5049333;28;19997;-46
2023/03/30 01:20:19;;;;;;;;;;;;;;;12.96;77.91;100544.84;5050302;28;19917;-46
2023/03/30 01:22:51;;;;;;;;;;;;;;;12.90;78.49;100552.50;5054035;28;19909;-46
2023/03/30 01:25:26;;;;;;;;;;;;;;;12.93;79.07;100549.13;5051052;28;19920;-47
2023/03/30 01:28:14;;;;;;;;;;;;;;;12.93;79.81;100551.69;5050800;28;19920;-52
2023/03/30 01:30:58;;;;;;;;;;;;;;;12.94;79.72;100551.72;5052385;28;19916;-47
2023/03/30 01:33:35;;;;;;;;;;;;;;;12.93;78.57;100539.66;5052299;28;20371;-49
2023/03/30 01:36:09;;;;;;;;;;;;;;;12.91;79.20;100525.84;5052868;28;19912;-50
2023/03/30 01:38:58;;;;;;;;;;;;;;;12.88;78.93;100533.56;5048583;28;19912;-47
2023/03/30 01:41:23;;;;;;;;;;;;;;;12.88;78.64;100537.00;5051355;28;20367;-51
2023/03/30 01:43:52;;;;;;;;;;;;;;;12.84;79.12;100527.50;5052145;28;19927;-47
2023/03/30 01:46:32;;;;;;;;;;;;;;;12.81;79.54;100522.31;5056626;28;20015;-47
2023/03/30 01:49:16;;;;;;;;;;;;;;;12.78;79.58;100513.63;5049442;28;20263;-47
2023/03/30 01:51:47;;;;;;;;;;;;;;;12.73;79.88;100518.72;5055376;28;19954;-51
2023/03/30 01:54:16;;;;;;;;;;;;;;;12.69;79.89;100516.97;5055212;28;19989;-47
2023/03/30 01:56:45;;;;;;;;;;;;;;;12.62;80.17;100515.16;5058576;28;19913;-47
2023/03/30 01:59:22;;;;;;;;;;;;;;;12.55;80.16;100511.59;5049403;28;19912;-47
2023/03/30 02:01:49;;;;;;;;;;;;;;;12.52;80.71;100524.47;5052420;28;20400;-47
2023/03/30 02:04:16;;;;;;;;;;;;;;;12.52;80.54;100537.38;5052532;28;20006;-51
2023/03/30 02:07:01;;;;;;;;;;;;;;;12.53;80.80;100535.66;5052061;28;19928;-47
2023/03/30 02:09:28;;;;;;;;;;;;;;;12.54;80.82;100529.63;5046333;28;19917;-47
2023/03/30 02:11:54;;;;;;;;;;;;;;;12.59;80.19;100540.91;5056037;28;19913;-49
2023/03/30 02:14:22;;;;;;;;;;;;;;;12.69;79.91;100532.47;5055648;28;19923;-50
2023/03/30 02:16:49;;;;;;;;;;;;;;;12.88;79.28;100537.00;5054079;28;19916;-48
2023/03/30 02:19:15;;;;;;;;;;;;;;;12.93;79.32;100538.81;5050296;28;19909;-51
2023/03/30 02:21:41;;;;;;;;;;;;;;;13.01;78.99;100532.88;5050178;28;19927;-50
2023/03/30 02:24:10;;;;;;;;;;;;;;;13.07;79.29;100537.25;5052550;28;19917;-48
2023/03/30 02:26:36;;;;;;;;;;;;;;;13.12;78.66;100538.19;5055413;28;19912;-47
2023/03/30 02:29:01;;;;;;;;;;;;;;;13.15;78.91;100530.47;5051144;28;19920;-46
2023/03/30 02:31:27;;;;;;;;;;;;;;;13.30;77.87;100530.69;5052582;28;19917;-47
2023/03/30 02:33:58;;;;;;;;;;;;;;;13.25;78.33;100524.59;5051963;28;20023;-48
2023/03/30 02:36:36;;;;;;;;;;;;;;;13.30;78.25;100535.84;5051410;28;19912;-47
2023/03/30 02:39:07;;;;;;;;;;;;;;;13.32;78.16;100535.88;5053130;28;19955;-47
2023/03/30 02:41:38;;;;;;;;;;;;;;;13.36;77.46;100537.66;5056826;28;19916;-48
2023/03/30 02:44:12;;;;;;;;;;;;;;;13.34;77.69;100529.84;5050781;28;20007;-47
2023/03/30 02:46:45;;;;;;;;;;;;;;;13.33;77.86;100533.28;5036745;28;20421;-49
2023/03/30 02:49:23;;;;;;;;;;;;;;;13.31;77.96;100535.00;5052669;28;19917;-45
2023/03/30 02:51:51;;;;;;;;;;;;;;;13.35;78.08;100533.34;5055315;28;20450;-45
2023/03/30 02:54:17;;;;;;;;;;;;;;;13.36;77.42;100532.47;5053798;28;19917;-45
2023/03/30 02:56:50;;;;;;;;;;;;;;;13.38;78.14;100535.94;5052191;28;19913;-45
2023/03/30 02:59:18;;;;;;;;;;;;;;;13.41;78.03;100530.81;5056979;28;20384;-45
2023/03/30 03:01:43;;;;;;;;;;;;;;;13.43;77.99;100525.66;5055512;28;19992;-46
2023/03/30 03:04:10;;;;;;;;;;;;;;;13.41;77.83;100526.53;5057543;28;19948;-46
2023/03/30 03:06:36;;;;;;;;;;;;;;;13.43;77.07;100523.94;5055170;28;19956;-44
2023/03/30 03:09:02;;;;;;;;;;;;;;;13.44;77.17;100517.06;5052440;28;20363;-45
2023/03/30 03:11:28;;;;;;;;;;;;;;;13.46;77.02;100520.50;5053604;28;20003;-45
2023/03/30 03:13:54;;;;;;;;;;;;;;;13.46;77.14;100520.50;5039248;28;20011;-44
2023/03/30 03:16:19;;;;;;;;;;;;;;;13.42;77.48;100524.81;5056858;28;20311;-45
2023/03/30 03:18:44;;;;;;;;;;;;;;;13.43;76.80;100528.25;5055847;28;19917;-45
2023/03/30 03:21:11;;;;;;;;;;;;;;;13.43;77.27;100530.84;5054912;28;19928;-45
2023/03/30 03:23:36;;;;;;;;;;;;;;;13.45;77.39;100529.13;5058264;28;20007;-46
2023/03/30 03:26:02;;;;;;;;;;;;;;;13.48;76.32;100534.34;5060804;28;20339;-47
2023/03/30 03:28:28;;;;;;;;;;;;;;;13.42;77.47;100532.56;5053695;28;19921;-47
2023/03/30 03:30:54;;;;;;;;;;;;;;;13.40;77.46;100529.94;5055379;28;19916;-46
2023/03/30 03:33:19;;;;;;;;;;;;;;;13.35;77.20;100520.41;5053829;28;20015;-46
2023/03/30 03:35:45;;;;;;;;;;;;;;;13.34;77.93;100504.03;5054393;28;20073;-47
2023/03/30 03:38:11;;;;;;;;;;;;;;;13.33;78.17;100515.22;5055797;28;19920;-47
2023/03/30 03:40:36;;;;;;;;;;;;;;;13.33;77.75;100504.88;5055584;28;20011;-47
2023/03/30 03:43:02;;;;;;;;;;;;;;;13.35;77.67;100492.88;5041472;28;20347;-47
2023/03/30 03:45:27;;;;;;;;;;;;;;;13.33;77.73;100496.28;5055834;28;19959;-47
2023/03/30 03:47:52;;;;;;;;;;;;;;;13.30;77.80;100494.53;5051709;28;19913;-46
2023/03/30 03:50:18;;;;;;;;;;;;;;;13.22;77.55;100497.88;5053646;28;21114;-46
2023/03/30 03:52:43;;;;;;;;;;;;;;;13.20;78.49;100504.72;5050244;28;19923;-46
2023/03/30 03:55:10;;;;;;;;;;;;;;;13.14;77.78;100498.63;5053742;28;19952;-46
2023/03/30 03:57:35;;;;;;;;;;;;;;;13.17;78.16;100500.38;5056893;28;19924;-46
2023/03/30 04:00:01;;;;;;;;;;;;;;;13.10;78.51;100493.41;5052394;28;20379;-46
2023/03/30 04:02:26;;;;;;;;;;;;;;;13.13;77.84;100496.88;5060151;28;20264;-48
2023/03/30 04:04:52;;;;;;;;;;;;;;;13.24;77.49;100502.22;5056103;28;20314;-45
2023/03/30 04:07:17;;;;;;;;;;;;;;;13.30;77.76;100501.44;5051123;28;20359;-44
2023/03/30 04:09:43;;;;;;;;;;;;;;;13.28;79.00;100492.78;5052995;28;19931;-44
2023/03/30 04:12:08;;;;;;;;;;;;;;;13.18;79.89;100507.28;5050876;28;19999;-46
2023/03/30 04:14:33;;;;;;;;;;;;;;;13.15;80.91;100504.66;5051854;28;19948;-46
2023/03/30 04:16:59;;;;;;;;;;;;;;;13.13;85.32;100499.47;5054541;28;19916;-46
2023/03/30 04:19:26;;;;;;;;;;;;;;;12.92;88.27;100498.34;5057846;28;20416;-46
2023/03/30 04:21:51;;;;;;;;;;;;;;;12.64;90.97;100502.28;5040750;28;19956;-45
2023/03/30 04:24:17;;;;;;;;;;;;;;;12.41;91.04;100487.34;5054820;28;19948;-49
2023/03/30 04:26:47;;;;;;;;;;;;;;;12.27;91.76;100487.13;5051491;28;20272;-46
2023/03/30 04:29:15;;;;;;;;;;;;;;;12.16;91.60;100491.25;5052507;28;20286;-49
2023/03/30 04:31:41;;;;;;;;;;;;;;;12.00;92.80;100479.81;5059882;28;19916;-45
2023/03/30 04:34:08;;;;;;;;;;;;;;;11.97;90.94;100479.78;5052650;28;20284;-45
2023/03/30 04:36:34;;;;;;;;;;;;;;;11.86;94.40;100488.19;5056811;28;19927;-46
2023/03/30 04:38:59;;;;;;;;;;;;;;;11.80;96.75;100482.06;5049201;28;19916;-47
2023/03/30 04:41:32;;;;;;;;;;;;;;;11.76;95.19;100476.81;5052927;28;19936;-45
2023/03/30 04:43:57;;;;;;;;;;;;;;;11.72;98.05;100477.63;5053330;28;19923;-44
2023/03/30 04:46:22;;;;;;;;;;;;;;;11.72;96.46;100473.34;5052046;28;19917;-45
2023/03/30 04:48:48;;;;;;;;;;;;;;;11.74;95.57;100483.66;5055015;28;19924;-46
2023/03/30 04:51:13;;;;;;;;;;;;;;;11.67;96.67;100471.53;5052859;28;19978;-45
2023/03/30 04:53:38;;;;;;;;;;;;;;;11.65;97.29;100468.03;5050196;28;19917;-46
2023/03/30 04:56:04;;;;;;;;;;;;;;;11.64;96.99;100476.59;5051440;28;19920;-45
2023/03/30 04:58:29;;;;;;;;;;;;;;;11.67;98.64;100479.25;5050488;28;19916;-46
2023/03/30 05:00:54;;;;;;;;;;;;;;;11.64;97.02;100492.91;5042659;28;19923;-47
2023/03/30 05:03:20;;;;;;;;;;;;;;;11.63;97.69;100511.78;5053045;28;20011;-45
2023/03/30 05:05:45;;;;;;;;;;;;;;;11.60;96.28;100516.91;5051182;28;20391;-45
2023/03/30 05:08:10;;;;;;;;;;;;;;;11.60;99.09;100523.75;5058931;28;19917;-47
2023/03/30 05:10:35;;;;;;;;;;;;;;;11.56;100.00;100525.41;5052076;28;19920;-46
2023/03/30 05:13:01;;;;;;;;;;;;;;;11.50;100.00;100515.00;5050618;28;20379;-45
2023/03/30 05:15:26;;;;;;;;;;;;;;;11.37;100.00;100520.75;5051500;28;19924;-49
2023/03/30 05:17:52;;;;;;;;;;;;;;;11.27;100.00;100519.69;5051798;28;19913;-46
2023/03/30 05:20:17;;;;;;;;;;;;;;;11.33;100.00;100524.94;5052469;28;19962;-47
2023/03/30 05:22:43;;;;;;;;;;;;;;;11.28;100.00;100527.47;5050158;28;20375;-47
2023/03/30 05:25:08;;;;;;;;;;;;;;;11.23;100.00;100526.50;5059595;28;19943;-46
2023/03/30 05:27:34;;;;;;;;;;;;;;;11.16;100.00;100526.31;5051543;28;19925;-45
2023/03/30 05:29:59;;;;;;;;;;;;;;;11.21;100.00;100546.16;5055575;28;20007;-49
2023/03/30 05:32:24;;;;;;;;;;;;;;;11.08;100.00;100533.91;5054878;28;20291;-46
2023/03/30 05:34:50;;;;;;;;;;;;;;;11.01;100.00;100535.47;5054049;28;19964;-46
2023/03/30 05:37:15;;;;;;;;;;;;;;;11.00;100.00;100530.31;5055618;28;19919;-46
2023/03/30 05:39:40;;;;;;;;;;;;;;;10.98;100.00;100527.72;5050882;28;19921;-47
2023/03/30 05:42:06;;;;;;;;;;;;;;;10.92;100.00;100522.44;5060871;28;20464;-50
2023/03/30 05:44:31;;;;;;;;;;;;;;;10.90;100.00;100528.38;5052006;28;19916;-47
2023/03/30 05:46:57;;;;;;;;;;;;;;;10.88;100.00;100532.63;5054359;28;19916;-47
2023/03/30 05:49:22;;;;;;;;;;;;;;;10.91;100.00;100522.38;5050159;28;20929;-46
2023/03/30 05:51:47;;;;;;;;;;;;;;;10.90;100.00;100528.38;5051045;28;19943;-48
2023/03/30 05:54:13;;;;;;;;;;;;;;;10.87;100.00;100531.75;5052395;28;19929;-46
2023/03/30 05:56:39;;;;;;;;;;;;;;;10.86;100.00;100534.28;5035254;28;20405;-45
2023/03/30 05:59:04;;;;;;;;;;;;;;;10.87;100.00;100529.19;5053959;28;20406;-46
2023/03/30 06:01:30;;;;;;;;;;;;;;;10.86;100.00;100529.13;5040572;28;19963;-46
2023/03/30 06:03:55;;;;;;;;;;;;;;;10.94;100.00;100528.47;5058755;28;19927;-44
2023/03/30 06:06:21;;;;;;;;;;;;;;;10.92;100.00;100531.81;5052678;28;19939;-45
2023/03/30 06:08:46;;;;;;;;;;;;;;;10.84;100.00;100531.66;5050799;28;20646;-44
2023/03/30 06:11:12;;;;;;;;;;;;;;;10.84;100.00;100530.81;5050910;28;19920;-45
2023/03/30 06:13:38;;;;;;;;;;;;;;;10.88;100.00;100520.63;5051967;28;19917;-45
2023/03/30 06:16:03;;;;;;;;;;;;;;;10.82;100.00;100535.06;5054425;28;20587;-43
2023/03/30 06:18:28;;;;;;;;;;;;;;;10.90;100.00;100536.94;5049051;28;20375;-45
2023/03/30 06:20:53;;;;;;;;;;;;;;;10.83;100.00;100539.38;5052128;28;19924;-45
2023/03/30 06:23:19;;;;;;;;;;;;;;;10.79;100.00;100538.41;5056506;28;19919;-45
2023/03/30 06:25:45;;;;;;;;;;;;;;;10.84;100.00;100546.25;5060422;28;20465;-45
2023/03/30 06:28:10;;;;;;;;;;;;;;;10.82;100.00;100548.78;5061000;28;19908;-45
2023/03/30 06:30:37;;;;;;;;;;;;;;;10.89;100.00;100548.06;5063396;28;20586;-47
2023/03/30 06:33:02;;;;;;;;;;;;;;;10.93;100.00;100549.03;5057577;28;19916;-44
2023/03/30 06:35:28;;;;;;;;;;;;;;;10.88;100.00;100559.22;5053277;28;19916;-45
2023/03/30 06:37:53;;;;;;;;;;;;;;;10.94;100.00;100568.75;5056044;28;21018;-48
2023/03/30 06:40:19;;;;;;;;;;;;;;;10.93;100.00;100574.75;5065810;28;19923;-47
2023/03/30 06:42:44;;;;;;;;;;;;;;;11.07;100.00;100570.75;5052955;28;19917;-43
2023/03/30 06:45:10;;;;;;;;;;;;;;;11.04;100.00;100567.25;5051921;28;19917;-45
2023/03/30 06:47:36;;;;;;;;;;;;;;;11.11;100.00;100569.13;5053275;28;21053;-45
2023/03/30 06:50:01;;;;;;;;;;;;;;;11.16;100.00;100564.91;5056414;28;19926;-45
2023/03/30 06:52:26;;;;;;;;;;;;;;;11.15;100.00;100570.91;5055350;28;20394;-46
2023/03/30 06:54:52;;;;;;;;;;;;;;;11.08;100.00;100567.34;5048033;28;19958;-46
2023/03/30 06:57:17;;;;;;;;;;;;;;;11.05;100.00;100574.16;5035238;28;19917;-46
2023/03/30 06:59:42;;;;;;;;;;;;;;;11.02;100.00;100564.63;5051113;28;20015;-47
2023/03/30 07:02:12;;;;;;;;;;;;;;;11.11;100.00;100580.28;5046684;28;19928;-45
2023/03/30 07:04:37;;;;;;;;;;;;;;;11.32;100.00;100564.41;5054749;28;19913;-45
2023/03/30 07:07:02;;;;;;;;;;;;;;;11.60;100.00;100568.41;5045475;28;19925;-46
2023/03/30 07:09:28;;;;;;;;;;;;;;;11.77;100.00;100564.44;5056577;28;19928;-45
2023/03/30 07:11:53;;;;;;;;;;;;;;;12.01;100.00;100571.78;5055770;28;20314;-45
2023/03/30 07:14:18;;;;;;;;;;;;;;;12.11;100.00;100571.91;5059981;28;19909;-47
2023/03/30 07:16:43;;;;;;;;;;;;;;;12.20;100.00;100580.69;5053911;28;19916;-44
2023/03/30 07:19:09;;;;;;;;;;;;;;;12.23;100.00;100578.16;5056277;28;20420;-45
2023/03/30 07:21:34;;;;;;;;;;;;;;;12.33;100.00;100584.34;5053977;28;19978;-46
2023/03/30 07:24:00;;;;;;;;;;;;;;;12.48;100.00;100579.41;5037248;28;19925;-45
2023/03/30 07:26:26;;;;;;;;;;;;;;;12.53;100.00;100589.81;5056830;28;19913;-47
2023/03/30 07:28:52;;;;;;;;;;;;;;;12.55;100.00;100585.53;5053277;28;20007;-44
2023/03/30 07:31:18;;;;;;;;;;;;;;;12.43;100.00;100593.94;5025481;28;19999;-45
2023/03/30 07:33:44;;;;;;;;;;;;;;;12.47;100.00;100588.00;5047740;28;19979;-43
2023/03/30 07:36:09;;;;;;;;;;;;;;;12.34;100.00;100598.97;5057356;28;19986;-44
2023/03/30 07:38:35;;;;;;;;;;;;;;;12.34;100.00;100598.97;5060802;28;19913;-45
2023/03/30 07:41:00;;;;;;;;;;;;;;;12.42;100.00;100610.25;5053406;28;20319;-43
2023/03/30 07:43:26;;;;;;;;;;;;;;;12.30;100.00;100600.59;5058081;28;20608;-44
2023/03/30 07:45:51;;;;;;;;;;;;;;;12.23;100.00;100603.94;5053721;28;19963;-45
2023/03/30 07:48:16;;;;;;;;;;;;;;;12.27;100.00;100613.47;5053124;28;19966;-44
2023/03/30 07:50:42;;;;;;;;;;;;;;;12.32;100.00;100619.56;5050149;28;19951;-44
2023/03/30 07:53:07;;;;;;;;;;;;;;;12.33;100.00;100613.56;5051965;28;20304;-44
2023/03/30 07:55:32;;;;;;;;;;;;;;;12.43;99.20;100624.03;5061157;28;19973;-44
2023/03/30 07:57:58;;;;;;;;;;;;;;;12.26;100.00;100629.78;5052835;28;19908;-45
2023/03/30 08:00:23;;;;;;;;;;;;;;;12.31;100.00;100628.13;5061521;28;19955;-46
2023/03/30 08:02:49;;;;;;;;;;;;;;;12.48;99.73;100627.53;5051233;28;19913;-44
2023/03/30 08:05:16;;;;;;;;;;;;;;;12.46;99.75;100632.69;5054003;28;20300;-44
2023/03/30 08:07:41;;;;;;;;;;;;;;;12.54;98.98;100633.66;5052754;28;19970;-44
2023/03/30 08:10:07;;;;;;;;;;;;;;;12.49;99.34;100642.16;5052594;28;20039;-44
2023/03/30 08:12:33;;;;;;;;;;;;;;;12.52;99.20;100637.06;5055978;28;19990;-44
2023/03/30 08:14:59;;;;;;;;;;;;;;;12.57;99.91;100633.72;5056807;28;20007;-43
2023/03/30 08:17:24;;;;;;;;;;;;;;;12.71;98.29;100643.41;5056566;28;20000;-45
2023/03/30 08:19:50;;;;;;;;;;;;;;;12.81;96.74;100638.41;5052971;28;20015;-44
2023/03/30 08:22:15;;;;;;;;;;;;;;;12.80;97.49;100639.25;5051239;28;19938;-46
2023/03/30 08:24:40;;;;;;;;;;;;;;;13.01;94.28;100648.16;5056287;28;19916;-44
2023/03/30 08:27:06;;;;;;;;;;;;;;;12.98;93.55;100641.22;5054222;28;19939;-44
2023/03/30 08:29:32;;;;;;;;;;;;;;;12.89;92.17;100644.56;5052784;28;19955;-46
2023/03/30 08:31:57;;;;;;;;;;;;;;;12.93;94.11;100647.19;5054602;28;19959;-45
2023/03/30 08:34:22;;;;;;;;;;;;;;;13.01;94.48;100641.28;5056543;28;20017;-48
2023/03/30 08:36:48;;;;;;;;;;;;;;;13.20;91.04;100652.72;5057051;28;19923;-45
2023/03/30 08:39:14;;;;;;;;;;;;;;;13.20;90.59;100633.78;5053416;28;20291;-44
2023/03/30 08:41:51;;;;;;;;;;;;;;;13.26;89.34;100639.06;5055649;28;19919;-43
2023/03/30 08:44:34;;;;;;;;;;;;;;;13.21;91.92;100643.31;5053057;28;19913;-43
2023/03/30 08:47:03;;;;;;;;;;;;;;;13.37;90.05;100633.22;5055690;28;20409;-44
2023/03/30 08:49:32;;;;;;;;;;;;;;;13.50;91.23;100638.53;5054675;28;19920;-45
2023/03/30 08:52:00;;;;;;;;;;;;;;;13.75;84.13;100645.72;5053414;28;19932;-48
2023/03/30 08:54:26;;;;;;;;;;;;;;;13.79;84.43;100652.69;5054606;28;19969;-47
2023/03/30 08:56:59;;;;;;;;;;;;;;;13.72;85.95;100650.00;5037955;28;19924;-45
2023/03/30 08:59:37;;;;;;;;;;;;;;;13.74;85.25;100649.16;5058009;28;20294;-44
2023/03/30 09:02:12;;;;;;;;;;;;;;;13.73;83.90;100650.00;5060908;28;19924;-44
2023/03/30 09:04:40;;;;;;;;;;;;;;;13.82;81.37;100639.78;5057763;28;19917;-44
2023/03/30 09:07:11;;;;;;;;;;;;;;;13.84;80.35;100658.75;5053874;28;19919;-47
2023/03/30 09:09:40;;;;;;;;;;;;;;;13.75;76.78;100668.13;5050802;28;19963;-43
2023/03/30 09:12:10;;;;;;;;;;;;;;;13.59;78.38;100655.03;5050078;28;20371;-45
2023/03/30 09:14:38;;;;;;;;;;;;;;;13.65;78.72;100654.19;5058325;28;19909;-44
2023/03/30 09:17:19;;;;;;;;;;;;;;;13.65;77.63;100659.38;5050330;28;20398;-46
2023/03/30 09:19:45;;;;;;;;;;;;;;;13.61;79.05;100667.94;5060156;28;19957;-45
2023/03/30 09:22:12;;;;;;;;;;;;;;;13.58;79.38;100665.31;5051158;28;19920;-44
2023/03/30 09:24:37;;;;;;;;;;;;;;;13.62;81.46;100651.59;5051249;28;19923;-44
2023/03/30 09:27:02;;;;;;;;;;;;;;;13.64;77.60;100681.75;5052573;28;19916;-44
2023/03/30 09:29:33;;;;;;;;;;;;;;;13.56;78.11;100670.47;5050942;28;19917;-44
2023/03/30 09:32:06;;;;;;;;;;;;;;;13.53;78.06;100693.69;5054895;28;20322;-45
2023/03/30 09:34:39;;;;;;;;;;;;;;;13.54;77.76;100689.41;5055408;28;19913;-45
2023/03/30 09:37:12;;;;;;;;;;;;;;;13.66;77.99;100676.63;5057266;28;20404;-44
2023/03/30 09:39:37;;;;;;;;;;;;;;;13.86;77.85;100690.66;5062748;28;19917;-45
2023/03/30 09:42:18;;;;;;;;;;;;;;;14.05;75.89;100696.03;5050755;28;19923;-43
2023/03/30 09:44:46;;;;;;;;;;;;;;;14.13;74.71;100697.84;5050277;28;19916;-45
2023/03/30 09:47:24;;;;;;;;;;;;;;;14.04;74.12;100697.75;5035565;28;20428;-45
2023/03/30 09:50:11;;;;;;;;;;;;;;;14.06;75.44;100710.69;5055440;28;19920;-45
2023/03/30 09:52:40;;;;;;;;;;;;;;;14.01;72.93;100699.44;5055505;28;20003;-50
2023/03/30 09:55:20;;;;;;;;;;;;;;;14.07;73.88;100689.16;5052936;28;20094;-48
2023/03/30 09:57:46;;;;;;;;;;;;;;;14.15;73.58;100692.72;5051397;28;19920;-46
2023/03/30 10:00:21;;;;;;;;;;;;;;;14.22;74.84;100694.50;5057957;28;20296;-50
2023/03/30 10:02:54;;;;;;;;;;;;;;;14.36;74.07;100703.25;5055327;28;20028;-50
2023/03/30 10:05:19;;;;;;;;;;;;;;;14.51;74.99;100693.97;5059345;28;19940;-48
2023/03/30 10:07:51;;;;;;;;;;;;;;;14.63;73.21;100705.28;5052089;28;19959;-48
2023/03/30 10:10:19;;;;;;;;;;;;;;;14.80;70.44;100700.25;5055196;28;19925;-50
2023/03/30 10:12:47;;;;;;;;;;;;;;;14.74;73.32;100713.13;5056737;28;20298;-50
2023/03/30 10:15:16;;;;;;;;;;;;;;;14.63;73.01;100723.41;5051614;28;19919;-48
2023/03/30 10:17:44;;;;;;;;;;;;;;;14.56;72.71;100720.72;5052247;28;19919;-48
2023/03/30 10:20:21;;;;;;;;;;;;;;;14.53;72.02;100721.56;5056228;28;19913;-48
2023/03/30 10:22:53;;;;;;;;;;;;;;;14.40;69.84;100730.03;5055920;28;20288;-48
2023/03/30 10:25:22;;;;;;;;;;;;;;;14.46;70.83;100725.81;5051941;28;19952;-48
2023/03/30 10:27:48;;;;;;;;;;;;;;;14.54;72.34;100715.53;5053084;28;19927;-50
2023/03/30 10:30:17;;;;;;;;;;;;;;;14.87;70.69;100724.47;5052222;28;19928;-46
2023/03/30 10:32:44;;;;;;;;;;;;;;;14.96;71.74;100717.63;5051296;28;19912;-47
2023/03/30 10:35:09;;;;;;;;;;;;;;;15.35;69.52;100730.84;5055934;28;20142;-46
2023/03/30 10:37:37;;;;;;;;;;;;;;;15.33;67.69;100723.06;5053629;28;20004;-48
2023/03/30 10:40:10;;;;;;;;;;;;;;;15.16;66.23;100722.97;5053090;28;19912;-47
2023/03/30 10:42:36;;;;;;;;;;;;;;;14.96;65.61;100717.63;5053933;28;20384;-49
2023/03/30 10:45:05;;;;;;;;;;;;;;;14.94;66.63;100726.25;5038530;28;19923;-50
2023/03/30 10:47:30;;;;;;;;;;;;;;;14.94;66.75;100723.66;5052587;28;19913;-47
2023/03/30 10:50:02;;;;;;;;;;;;;;;14.86;67.98;100725.31;5049038;28;19916;-47
2023/03/30 10:52:46;;;;;;;;;;;;;;;14.77;68.60;100731.28;5035893;28;19916;-48
2023/03/30 10:55:27;;;;;;;;;;;;;;;14.65;69.98;100732.03;5057524;28;19916;-47
2023/03/30 10:58:12;;;;;;;;;;;;;;;14.75;70.50;100714.88;5056024;28;20015;-50
2023/03/30 11:00:47;;;;;;;;;;;;;;;15.22;69.78;100719.53;5043249;28;19947;-48
2023/03/30 11:03:23;;;;;;;;;;;;;;;15.72;67.92;100726.81;5054181;28;19916;-48
2023/03/30 11:05:51;;;;;;;;;;;;;;;15.96;67.38;100711.34;5051719;28;19942;-48
2023/03/30 11:08:20;;;;;;;;;;;;;;;16.22;65.84;100726.13;5053270;28;19950;-49
2023/03/30 11:10:52;;;;;;;;;;;;;;;16.08;64.17;100710.53;5056232;28;19913;-51
2023/03/30 11:13:23;;;;;;;;;;;;;;;15.78;63.79;100739.78;5051358;28;20396;-51
2023/03/30 11:15:50;;;;;;;;;;;;;;;15.63;64.93;100734.53;5054782;28;19950;-46
2023/03/30 11:18:19;;;;;;;;;;;;;;;15.77;64.16;100735.44;5059898;28;19968;-50
2023/03/30 11:20:50;;;;;;;;;;;;;;;15.81;65.75;100732.00;5055040;28;19947;-51
2023/03/30 11:23:26;;;;;;;;;;;;;;;15.92;64.27;100726.88;5056020;28;21146;-49
2023/03/30 11:25:52;;;;;;;;;;;;;;;15.79;65.02;100729.41;5046764;28;20339;-47
2023/03/30 11:28:17;;;;;;;;;;;;;;;15.75;65.70;100721.63;5055079;28;19916;-47
2023/03/30 11:30:42;;;;;;;;;;;;;;;15.79;65.15;100723.38;5053194;28;19966;-58
2023/03/30 11:33:17;;;;;;;;;;;;;;;15.67;64.55;100723.31;5051019;28;19924;-60
2023/03/30 11:35:55;;;;;;;;;;;;;;;15.60;67.97;100718.94;5051854;28;19967;-51
2023/03/30 11:38:20;;;;;;;;;;;;;;;15.60;67.39;100712.03;5052665;28;20492;-51
2023/03/30 11:40:50;;;;;;;;;;;;;;;15.72;66.75;100724.22;5056512;28;20337;-47
2023/03/30 11:43:17;;;;;;;;;;;;;;;15.91;65.37;100718.25;5051487;28;20004;-48
2023/03/30 11:46:02;;;;;;;;;;;;;;;15.79;67.30;100738.94;5054035;28;19908;-47
2023/03/30 11:48:27;;;;;;;;;;;;;;;15.48;69.73;100733.56;5057154;28;19916;-46
2023/03/30 11:50:55;;;;;;;;;;;;;;;15.04;72.41;100728.03;5053885;28;20525;-49
2023/03/30 11:53:33;;;;;;;;;;;;;;;14.78;73.54;100721.81;5051180;28;19917;-47
2023/03/30 11:55:58;;;;;;;;;;;;;;;14.62;74.59;100726.84;5054005;28;19920;-49
2023/03/30 11:58:42;;;;;;;;;;;;;;;14.61;74.33;100722.50;5055288;28;19908;-48
2023/03/30 12:01:08;;;;;;;;;;;;;;;14.63;74.24;100731.16;5059033;28;19933;-46
2023/03/30 12:03:43;;;;;;;;;;;;;;;14.63;73.77;100730.31;5050652;28;19917;-49
2023/03/30 12:06:22;;;;;;;;;;;;;;;14.68;73.54;100726.91;5054944;28;20055;-50
2023/03/30 12:08:47;;;;;;;;;;;;;;;14.69;74.83;100730.38;5054696;28;19923;-51
2023/03/30 12:11:33;;;;;;;;;;;;;;;14.73;71.90;100740.72;5056499;28;19912;-51
2023/03/30 12:13:59;;;;;;;;;;;;;;;14.75;72.40;100751.13;5055916;28;19915;-46
2023/03/30 12:16:40;;;;;;;;;;;;;;;14.80;72.32;100740.78;5052598;28;19953;-50
2023/03/30 12:19:21;;;;;;;;;;;;;;;14.92;71.29;100752.13;5052469;28;19908;-51
2023/03/30 12:21:55;;;;;;;;;;;;;;;14.97;70.67;100745.25;5055427;28;19952;-50
2023/03/30 12:24:24;;;;;;;;;;;;;;;14.99;68.79;100766.00;5056940;28;19917;-49
2023/03/30 12:26:50;;;;;;;;;;;;;;;14.97;67.52;100750.44;5056704;28;20426;-50
2023/03/30 12:29:16;;;;;;;;;;;;;;;14.95;69.22;100736.63;5053654;28;19917;-47
2023/03/30 12:31:57;;;;;;;;;;;;;;;14.99;69.56;100759.09;5049640;28;19966;-50
2023/03/30 12:34:26;;;;;;;;;;;;;;;15.05;67.80;100744.47;5050114;28;20363;-49
2023/03/30 12:36:59;;;;;;;;;;;;;;;15.35;67.37;100751.56;5055100;28;20520;-51
2023/03/30 12:39:29;;;;;;;;;;;;;;;15.76;67.01;100736.31;5059150;28;20278;-48
2023/03/30 12:42:14;;;;;;;;;;;;;;;16.08;65.36;100746.84;5055392;28;20279;-47